sensor_id;sensor_type;location;lat;lon;timestamp;P1;durP1;ratioP1;P2;durP2;ratioP2
74612;SDS011;63119;51.788;8.824;2023-02-04T00:00:07;22.08;;;3.78;;
74612;SDS011;63119;51.788;8.824;2023-02-04T00:02:36;14.07;;;3.33;;
74612;SDS011;63119;51.788;8.824;2023-02-04T00:05:02;19.55;;;4.15;;
74612;SDS011;63119;51.788;8.824;2023-02-04T00:07:29;26.48;;;4.00;;
74612;SDS011;63119;51.788;8.824;2023-02-04T00:09:54;26.20;;;4.20;;
74612;SDS011;63119;51.788;8.824;2023-02-04T00:12:19;26.13;;;4.07;;
74612;SDS011;63119;51.788;8.824;2023-02-04T00:14:45;22.50;;;3.83;;
74612;SDS011;63119;51.788;8.824;2023-02-04T00:17:10;24.53;;;3.77;;
74612;SDS011;63119;51.788;8.824;2023-02-04T00:19:37;20.65;;;3.50;;
74612;SDS011;63119;51.788;8.824;2023-02-04T00:22:05;27.15;;;4.38;;
74612;SDS011;63119;51.788;8.824;2023-02-04T00:24:31;27.58;;;4.07;;
74612;SDS011;63119;51.788;8.824;2023-02-04T00:26:57;19.27;;;3.40;;
74612;SDS011;63119;51.788;8.824;2023-02-04T00:29:22;22.67;;;3.77;;
74612;SDS011;63119;51.788;8.824;2023-02-04T00:31:47;22.23;;;4.63;;
74612;SDS011;63119;51.788;8.824;2023-02-04T00:34:13;25.33;;;3.50;;
74612;SDS011;63119;51.788;8.824;2023-02-04T00:36:38;18.53;;;3.90;;
74612;SDS011;63119;51.788;8.824;2023-02-04T00:39:03;17.80;;;3.07;;
74612;SDS011;63119;51.788;8.824;2023-02-04T00:41:28;14.10;;;3.33;;
74612;SDS011;63119;51.788;8.824;2023-02-04T00:43:54;25.00;;;4.20;;
74612;SDS011;63119;51.788;8.824;2023-02-04T00:46:19;29.87;;;4.07;;
74612;SDS011;63119;51.788;8.824;2023-02-04T00:48:44;23.17;;;4.43;;
74612;SDS011;63119;51.788;8.824;2023-02-04T00:51:09;20.90;;;3.20;;
74612;SDS011;63119;51.788;8.824;2023-02-04T00:53:35;13.93;;;3.67;;
74612;SDS011;63119;51.788;8.824;2023-02-04T00:56:00;25.40;;;4.07;;
74612;SDS011;63119;51.788;8.824;2023-02-04T00:58:25;21.60;;;3.70;;
74612;SDS011;63119;51.788;8.824;2023-02-04T01:00:50;21.10;;;3.67;;
74612;SDS011;63119;51.788;8.824;2023-02-04T01:03:16;14.07;;;3.97;;
74612;SDS011;63119;51.788;8.824;2023-02-04T01:05:41;23.93;;;3.70;;
74612;SDS011;63119;51.788;8.824;2023-02-04T01:08:06;18.20;;;3.67;;
74612;SDS011;63119;51.788;8.824;2023-02-04T01:10:31;21.17;;;3.70;;
74612;SDS011;63119;51.788;8.824;2023-02-04T01:12:57;25.27;;;4.00;;
74612;SDS011;63119;51.788;8.824;2023-02-04T01:15:22;19.97;;;4.07;;
74612;SDS011;63119;51.788;8.824;2023-02-04T01:17:47;24.00;;;3.83;;
74612;SDS011;63119;51.788;8.824;2023-02-04T01:20:13;27.88;;;5.13;;
74612;SDS011;63119;51.788;8.824;2023-02-04T01:22:38;31.23;;;4.67;;
74612;SDS011;63119;51.788;8.824;2023-02-04T01:25:04;28.20;;;4.43;;
74612;SDS011;63119;51.788;8.824;2023-02-04T01:27:29;28.05;;;4.35;;
74612;SDS011;63119;51.788;8.824;2023-02-04T01:29:54;28.80;;;6.40;;
74612;SDS011;63119;51.788;8.824;2023-02-04T01:32:20;13.77;;;3.43;;
74612;SDS011;63119;51.788;8.824;2023-02-04T01:34:45;19.43;;;3.47;;
74612;SDS011;63119;51.788;8.824;2023-02-04T01:37:10;28.17;;;5.27;;
74612;SDS011;63119;51.788;8.824;2023-02-04T01:39:35;32.00;;;4.93;;
74612;SDS011;63119;51.788;8.824;2023-02-04T01:42:01;28.13;;;4.10;;
74612;SDS011;63119;51.788;8.824;2023-02-04T01:44:27;23.23;;;4.82;;
74612;SDS011;63119;51.788;8.824;2023-02-04T01:46:53;33.08;;;4.28;;
74612;SDS011;63119;51.788;8.824;2023-02-04T01:49:18;24.80;;;4.15;;
74612;SDS011;63119;51.788;8.824;2023-02-04T01:51:44;14.75;;;4.10;;
74612;SDS011;63119;51.788;8.824;2023-02-04T01:54:11;25.48;;;4.38;;
74612;SDS011;63119;51.788;8.824;2023-02-04T01:56:37;24.58;;;4.32;;
74612;SDS011;63119;51.788;8.824;2023-02-04T01:59:14;17.77;;;4.32;;
74612;SDS011;63119;51.788;8.824;2023-02-04T02:01:41;15.98;;;3.40;;
74612;SDS011;63119;51.788;8.824;2023-02-04T02:04:10;22.38;;;3.67;;
74612;SDS011;63119;51.788;8.824;2023-02-04T02:06:37;23.13;;;4.65;;
74612;SDS011;63119;51.788;8.824;2023-02-04T02:09:05;20.33;;;4.32;;
74612;SDS011;63119;51.788;8.824;2023-02-04T02:11:30;21.70;;;3.70;;
74612;SDS011;63119;51.788;8.824;2023-02-04T02:13:56;21.70;;;4.70;;
74612;SDS011;63119;51.788;8.824;2023-02-04T02:16:22;24.27;;;4.70;;
74612;SDS011;63119;51.788;8.824;2023-02-04T02:18:47;32.77;;;5.20;;
74612;SDS011;63119;51.788;8.824;2023-02-04T02:21:13;22.90;;;4.13;;
74612;SDS011;63119;51.788;8.824;2023-02-04T02:23:47;24.65;;;4.05;;
74612;SDS011;63119;51.788;8.824;2023-02-04T02:26:15;25.35;;;4.10;;
74612;SDS011;63119;51.788;8.824;2023-02-04T02:28:43;25.55;;;3.40;;
74612;SDS011;63119;51.788;8.824;2023-02-04T02:31:09;25.95;;;4.18;;
74612;SDS011;63119;51.788;8.824;2023-02-04T02:33:34;26.60;;;4.53;;
74612;SDS011;63119;51.788;8.824;2023-02-04T02:36:00;26.98;;;3.90;;
74612;SDS011;63119;51.788;8.824;2023-02-04T02:38:25;24.55;;;4.07;;
74612;SDS011;63119;51.788;8.824;2023-02-04T02:40:51;20.80;;;4.57;;
74612;SDS011;63119;51.788;8.824;2023-02-04T02:43:18;19.33;;;4.57;;
74612;SDS011;63119;51.788;8.824;2023-02-04T02:45:46;26.10;;;4.03;;
74612;SDS011;63119;51.788;8.824;2023-02-04T02:48:12;23.65;;;4.45;;
74612;SDS011;63119;51.788;8.824;2023-02-04T02:50:38;26.75;;;4.40;;
74612;SDS011;63119;51.788;8.824;2023-02-04T02:53:05;17.63;;;3.67;;
74612;SDS011;63119;51.788;8.824;2023-02-04T02:55:34;22.33;;;3.17;;
74612;SDS011;63119;51.788;8.824;2023-02-04T02:58:00;22.85;;;5.00;;
74612;SDS011;63119;51.788;8.824;2023-02-04T03:00:26;23.23;;;3.70;;
74612;SDS011;63119;51.788;8.824;2023-02-04T03:05:32;22.63;;;4.68;;
74612;SDS011;63119;51.788;8.824;2023-02-04T03:08:01;32.53;;;4.07;;
74612;SDS011;63119;51.788;8.824;2023-02-04T03:10:27;30.75;;;4.75;;
74612;SDS011;63119;51.788;8.824;2023-02-04T03:12:52;15.17;;;3.60;;
74612;SDS011;63119;51.788;8.824;2023-02-04T03:15:17;21.93;;;3.87;;
74612;SDS011;63119;51.788;8.824;2023-02-04T03:17:43;21.13;;;3.42;;
74612;SDS011;63119;51.788;8.824;2023-02-04T03:20:09;11.32;;;3.13;;
74612;SDS011;63119;51.788;8.824;2023-02-04T03:22:35;18.63;;;3.53;;
74612;SDS011;63119;51.788;8.824;2023-02-04T03:25:00;12.33;;;2.73;;
74612;SDS011;63119;51.788;8.824;2023-02-04T03:27:26;23.17;;;3.58;;
74612;SDS011;63119;51.788;8.824;2023-02-04T03:29:52;20.52;;;4.05;;
74612;SDS011;63119;51.788;8.824;2023-02-04T03:32:18;19.67;;;3.17;;
74612;SDS011;63119;51.788;8.824;2023-02-04T03:34:43;22.13;;;4.40;;
74612;SDS011;63119;51.788;8.824;2023-02-04T03:37:08;20.57;;;3.37;;
74612;SDS011;63119;51.788;8.824;2023-02-04T03:39:33;17.33;;;3.00;;
74612;SDS011;63119;51.788;8.824;2023-02-04T03:41:59;15.40;;;3.30;;
74612;SDS011;63119;51.788;8.824;2023-02-04T03:44:24;23.87;;;3.50;;
74612;SDS011;63119;51.788;8.824;2023-02-04T03:46:52;16.80;;;3.65;;
74612;SDS011;63119;51.788;8.824;2023-02-04T03:49:20;23.85;;;3.50;;
74612;SDS011;63119;51.788;8.824;2023-02-04T03:51:45;17.23;;;3.17;;
74612;SDS011;63119;51.788;8.824;2023-02-04T03:54:11;17.67;;;2.73;;
74612;SDS011;63119;51.788;8.824;2023-02-04T03:56:36;16.83;;;3.20;;
74612;SDS011;63119;51.788;8.824;2023-02-04T03:59:01;16.30;;;3.20;;
74612;SDS011;63119;51.788;8.824;2023-02-04T04:01:26;21.63;;;3.20;;
74612;SDS011;63119;51.788;8.824;2023-02-04T04:03:52;22.13;;;3.20;;
74612;SDS011;63119;51.788;8.824;2023-02-04T04:06:17;14.93;;;2.90;;
74612;SDS011;63119;51.788;8.824;2023-02-04T04:08:42;21.17;;;2.87;;
74612;SDS011;63119;51.788;8.824;2023-02-04T04:11:07;24.93;;;4.17;;
74612;SDS011;63119;51.788;8.824;2023-02-04T04:13:33;21.97;;;3.10;;
74612;SDS011;63119;51.788;8.824;2023-02-04T04:15:58;12.63;;;2.97;;
74612;SDS011;63119;51.788;8.824;2023-02-04T04:18:23;33.83;;;3.33;;
74612;SDS011;63119;51.788;8.824;2023-02-04T04:20:48;20.00;;;3.10;;
74612;SDS011;63119;51.788;8.824;2023-02-04T04:23:14;21.63;;;3.57;;
74612;SDS011;63119;51.788;8.824;2023-02-04T04:25:39;23.90;;;3.33;;
74612;SDS011;63119;51.788;8.824;2023-02-04T04:28:04;16.43;;;3.07;;
74612;SDS011;63119;51.788;8.824;2023-02-04T04:30:29;25.07;;;3.83;;
74612;SDS011;63119;51.788;8.824;2023-02-04T04:32:55;17.20;;;3.40;;
74612;SDS011;63119;51.788;8.824;2023-02-04T04:35:20;28.60;;;5.40;;
74612;SDS011;63119;51.788;8.824;2023-02-04T04:37:45;28.17;;;4.50;;
74612;SDS011;63119;51.788;8.824;2023-02-04T04:40:10;14.13;;;3.30;;
74612;SDS011;63119;51.788;8.824;2023-02-04T04:42:36;17.15;;;3.15;;
74612;SDS011;63119;51.788;8.824;2023-02-04T04:45:01;24.20;;;4.20;;
74612;SDS011;63119;51.788;8.824;2023-02-04T04:47:27;15.38;;;3.13;;
74612;SDS011;63119;51.788;8.824;2023-02-04T04:49:53;16.70;;;3.17;;
74612;SDS011;63119;51.788;8.824;2023-02-04T04:52:18;17.80;;;3.23;;
74612;SDS011;63119;51.788;8.824;2023-02-04T04:54:43;20.30;;;3.80;;
74612;SDS011;63119;51.788;8.824;2023-02-04T04:57:08;19.63;;;3.53;;
74612;SDS011;63119;51.788;8.824;2023-02-04T04:59:34;14.13;;;2.97;;
74612;SDS011;63119;51.788;8.824;2023-02-04T05:01:59;11.40;;;2.20;;
74612;SDS011;63119;51.788;8.824;2023-02-04T05:04:24;19.00;;;2.93;;
74612;SDS011;63119;51.788;8.824;2023-02-04T05:06:49;16.93;;;3.07;;
74612;SDS011;63119;51.788;8.824;2023-02-04T05:09:15;15.40;;;2.47;;
74612;SDS011;63119;51.788;8.824;2023-02-04T05:11:41;14.20;;;2.42;;
74612;SDS011;63119;51.788;8.824;2023-02-04T05:14:06;11.97;;;3.40;;
74612;SDS011;63119;51.788;8.824;2023-02-04T05:16:31;14.23;;;3.30;;
74612;SDS011;63119;51.788;8.824;2023-02-04T05:18:57;13.30;;;4.43;;
74612;SDS011;63119;51.788;8.824;2023-02-04T05:21:22;12.77;;;3.30;;
74612;SDS011;63119;51.788;8.824;2023-02-04T05:23:47;10.03;;;2.13;;
74612;SDS011;63119;51.788;8.824;2023-02-04T05:26:12;15.63;;;2.90;;
74612;SDS011;63119;51.788;8.824;2023-02-04T05:28:38;9.27;;;1.83;;
74612;SDS011;63119;51.788;8.824;2023-02-04T05:31:03;12.73;;;3.67;;
74612;SDS011;63119;51.788;8.824;2023-02-04T05:33:28;5.40;;;2.10;;
74612;SDS011;63119;51.788;8.824;2023-02-04T05:35:53;9.07;;;2.03;;
74612;SDS011;63119;51.788;8.824;2023-02-04T05:38:19;8.87;;;3.10;;
74612;SDS011;63119;51.788;8.824;2023-02-04T05:40:44;10.33;;;2.20;;
74612;SDS011;63119;51.788;8.824;2023-02-04T05:43:09;13.23;;;2.17;;
74612;SDS011;63119;51.788;8.824;2023-02-04T05:45:34;8.40;;;2.10;;
74612;SDS011;63119;51.788;8.824;2023-02-04T05:48:00;11.13;;;2.53;;
74612;SDS011;63119;51.788;8.824;2023-02-04T05:50:25;13.07;;;2.10;;
74612;SDS011;63119;51.788;8.824;2023-02-04T05:52:51;13.30;;;2.20;;
74612;SDS011;63119;51.788;8.824;2023-02-04T05:55:16;9.80;;;2.40;;
74612;SDS011;63119;51.788;8.824;2023-02-04T05:57:41;10.13;;;2.60;;
74612;SDS011;63119;51.788;8.824;2023-02-04T06:00:07;9.20;;;2.40;;
74612;SDS011;63119;51.788;8.824;2023-02-04T06:02:33;16.60;;;2.13;;
74612;SDS011;63119;51.788;8.824;2023-02-04T06:04:58;7.90;;;2.00;;
74612;SDS011;63119;51.788;8.824;2023-02-04T06:07:24;9.98;;;1.90;;
74612;SDS011;63119;51.788;8.824;2023-02-04T06:09:49;14.13;;;2.50;;
74612;SDS011;63119;51.788;8.824;2023-02-04T06:12:14;11.83;;;3.33;;
74612;SDS011;63119;51.788;8.824;2023-02-04T06:14:40;9.00;;;2.17;;
74612;SDS011;63119;51.788;8.824;2023-02-04T06:17:05;15.20;;;2.40;;
74612;SDS011;63119;51.788;8.824;2023-02-04T06:19:30;7.47;;;1.83;;
74612;SDS011;63119;51.788;8.824;2023-02-04T06:21:55;12.07;;;1.93;;
74612;SDS011;63119;51.788;8.824;2023-02-04T06:24:21;11.17;;;2.60;;
74612;SDS011;63119;51.788;8.824;2023-02-04T06:26:46;10.40;;;2.90;;
74612;SDS011;63119;51.788;8.824;2023-02-04T06:29:11;14.57;;;2.50;;
74612;SDS011;63119;51.788;8.824;2023-02-04T06:31:36;7.33;;;1.80;;
74612;SDS011;63119;51.788;8.824;2023-02-04T06:34:02;7.90;;;2.28;;
74612;SDS011;63119;51.788;8.824;2023-02-04T06:36:28;8.90;;;2.28;;
74612;SDS011;63119;51.788;8.824;2023-02-04T06:38:53;5.93;;;1.87;;
74612;SDS011;63119;51.788;8.824;2023-02-04T06:41:19;14.40;;;3.17;;
74612;SDS011;63119;51.788;8.824;2023-02-04T06:43:44;9.07;;;2.50;;
74612;SDS011;63119;51.788;8.824;2023-02-04T06:46:09;6.37;;;2.30;;
74612;SDS011;63119;51.788;8.824;2023-02-04T06:48:34;8.40;;;2.90;;
74612;SDS011;63119;51.788;8.824;2023-02-04T06:51:00;11.90;;;2.43;;
74612;SDS011;63119;51.788;8.824;2023-02-04T06:53:25;7.80;;;2.20;;
74612;SDS011;63119;51.788;8.824;2023-02-04T06:55:50;9.30;;;2.07;;
74612;SDS011;63119;51.788;8.824;2023-02-04T06:58:16;8.25;;;1.90;;
74612;SDS011;63119;51.788;8.824;2023-02-04T07:00:42;10.55;;;2.47;;
74612;SDS011;63119;51.788;8.824;2023-02-04T07:03:07;6.73;;;2.03;;
74612;SDS011;63119;51.788;8.824;2023-02-04T07:05:32;6.10;;;1.87;;
74612;SDS011;63119;51.788;8.824;2023-02-04T07:07:58;11.82;;;2.35;;
74612;SDS011;63119;51.788;8.824;2023-02-04T07:10:23;6.25;;;1.73;;
74612;SDS011;63119;51.788;8.824;2023-02-04T07:12:49;6.13;;;1.90;;
74612;SDS011;63119;51.788;8.824;2023-02-04T07:15:14;6.83;;;1.87;;
74612;SDS011;63119;51.788;8.824;2023-02-04T07:17:39;6.68;;;2.20;;
74612;SDS011;63119;51.788;8.824;2023-02-04T07:20:05;7.63;;;2.30;;
74612;SDS011;63119;51.788;8.824;2023-02-04T07:22:30;6.85;;;2.00;;
74612;SDS011;63119;51.788;8.824;2023-02-04T07:24:55;11.20;;;2.47;;
74612;SDS011;63119;51.788;8.824;2023-02-04T07:27:21;6.93;;;2.77;;
74612;SDS011;63119;51.788;8.824;2023-02-04T07:29:46;6.27;;;1.70;;
74612;SDS011;63119;51.788;8.824;2023-02-04T07:32:11;9.67;;;1.90;;
74612;SDS011;63119;51.788;8.824;2023-02-04T07:34:37;5.20;;;1.92;;
74612;SDS011;63119;51.788;8.824;2023-02-04T07:37:02;5.90;;;2.10;;
74612;SDS011;63119;51.788;8.824;2023-02-04T07:39:27;8.80;;;2.20;;
74612;SDS011;63119;51.788;8.824;2023-02-04T07:41:52;7.57;;;2.23;;
74612;SDS011;63119;51.788;8.824;2023-02-04T07:44:18;12.80;;;2.33;;
74612;SDS011;63119;51.788;8.824;2023-02-04T07:46:43;4.60;;;1.87;;
74612;SDS011;63119;51.788;8.824;2023-02-04T07:49:08;4.70;;;1.70;;
74612;SDS011;63119;51.788;8.824;2023-02-04T07:51:33;4.20;;;1.60;;
74612;SDS011;63119;51.788;8.824;2023-02-04T07:53:59;8.50;;;1.70;;
74612;SDS011;63119;51.788;8.824;2023-02-04T07:56:24;5.82;;;1.75;;
74612;SDS011;63119;51.788;8.824;2023-02-04T07:58:50;8.40;;;1.50;;
74612;SDS011;63119;51.788;8.824;2023-02-04T08:01:15;6.57;;;1.43;;
74612;SDS011;63119;51.788;8.824;2023-02-04T08:03:40;4.47;;;1.70;;
74612;SDS011;63119;51.788;8.824;2023-02-04T08:06:06;6.15;;;1.25;;
74612;SDS011;63119;51.788;8.824;2023-02-04T08:08:32;4.00;;;2.13;;
74612;SDS011;63119;51.788;8.824;2023-02-04T08:10:57;4.80;;;1.43;;
74612;SDS011;63119;51.788;8.824;2023-02-04T08:13:22;2.60;;;1.17;;
74612;SDS011;63119;51.788;8.824;2023-02-04T08:15:49;3.97;;;1.70;;
74612;SDS011;63119;51.788;8.824;2023-02-04T08:18:14;5.90;;;1.67;;
74612;SDS011;63119;51.788;8.824;2023-02-04T08:20:39;6.00;;;1.40;;
74612;SDS011;63119;51.788;8.824;2023-02-04T08:23:05;5.03;;;1.87;;
74612;SDS011;63119;51.788;8.824;2023-02-04T08:25:30;3.38;;;1.20;;
74612;SDS011;63119;51.788;8.824;2023-02-04T08:27:55;5.93;;;1.50;;
74612;SDS011;63119;51.788;8.824;2023-02-04T08:30:21;2.13;;;1.20;;
74612;SDS011;63119;51.788;8.824;2023-02-04T08:32:46;3.80;;;1.97;;
74612;SDS011;63119;51.788;8.824;2023-02-04T08:35:11;5.40;;;1.40;;
74612;SDS011;63119;51.788;8.824;2023-02-04T08:37:37;3.17;;;1.67;;
74612;SDS011;63119;51.788;8.824;2023-02-04T08:40:02;3.70;;;1.60;;
74612;SDS011;63119;51.788;8.824;2023-02-04T08:42:27;3.15;;;1.40;;
74612;SDS011;63119;51.788;8.824;2023-02-04T08:44:53;3.90;;;1.35;;
74612;SDS011;63119;51.788;8.824;2023-02-04T08:47:18;4.63;;;1.60;;
74612;SDS011;63119;51.788;8.824;2023-02-04T08:49:43;3.10;;;1.80;;
74612;SDS011;63119;51.788;8.824;2023-02-04T08:52:09;3.13;;;1.40;;
74612;SDS011;63119;51.788;8.824;2023-02-04T08:54:34;5.03;;;1.30;;
74612;SDS011;63119;51.788;8.824;2023-02-04T08:57:00;3.80;;;1.67;;
74612;SDS011;63119;51.788;8.824;2023-02-04T08:59:26;3.33;;;1.50;;
74612;SDS011;63119;51.788;8.824;2023-02-04T09:01:51;3.13;;;1.10;;
74612;SDS011;63119;51.788;8.824;2023-02-04T09:04:17;2.42;;;0.90;;
74612;SDS011;63119;51.788;8.824;2023-02-04T09:06:43;3.72;;;0.90;;
74612;SDS011;63119;51.788;8.824;2023-02-04T09:09:09;2.45;;;1.00;;
74612;SDS011;63119;51.788;8.824;2023-02-04T09:11:34;2.30;;;0.90;;
74612;SDS011;63119;51.788;8.824;2023-02-04T09:14:00;3.40;;;0.90;;
74612;SDS011;63119;51.788;8.824;2023-02-04T09:16:25;2.20;;;0.93;;
74612;SDS011;63119;51.788;8.824;2023-02-04T09:18:50;1.90;;;1.13;;
74612;SDS011;63119;51.788;8.824;2023-02-04T09:21:15;1.60;;;1.10;;
74612;SDS011;63119;51.788;8.824;2023-02-04T09:23:41;1.83;;;1.00;;
74612;SDS011;63119;51.788;8.824;2023-02-04T09:26:06;1.90;;;1.23;;
74612;SDS011;63119;51.788;8.824;2023-02-04T09:28:31;2.33;;;0.87;;
74612;SDS011;63119;51.788;8.824;2023-02-04T09:30:57;0.88;;;0.60;;
74612;SDS011;63119;51.788;8.824;2023-02-04T09:33:22;1.73;;;1.13;;
74612;SDS011;63119;51.788;8.824;2023-02-04T09:35:48;2.88;;;1.05;;
74612;SDS011;63119;51.788;8.824;2023-02-04T09:38:13;1.33;;;0.70;;
74612;SDS011;63119;51.788;8.824;2023-02-04T09:40:43;0.95;;;0.80;;
74612;SDS011;63119;51.788;8.824;2023-02-04T09:43:12;1.30;;;0.82;;
74612;SDS011;63119;51.788;8.824;2023-02-04T09:45:42;3.58;;;0.88;;
74612;SDS011;63119;51.788;8.824;2023-02-04T09:48:08;1.17;;;0.80;;
74612;SDS011;63119;51.788;8.824;2023-02-04T09:50:37;2.10;;;0.70;;
74612;SDS011;63119;51.788;8.824;2023-02-04T09:53:03;3.22;;;1.00;;
74612;SDS011;63119;51.788;8.824;2023-02-04T09:55:49;1.48;;;0.90;;
74612;SDS011;63119;51.788;8.824;2023-02-04T09:58:19;1.55;;;0.93;;
74612;SDS011;63119;51.788;8.824;2023-02-04T10:00:47;1.25;;;0.68;;
74612;SDS011;63119;51.788;8.824;2023-02-04T10:03:30;1.23;;;0.80;;
74612;SDS011;63119;51.788;8.824;2023-02-04T10:05:55;3.13;;;1.17;;
74612;SDS011;63119;51.788;8.824;2023-02-04T10:08:27;1.35;;;0.73;;
74612;SDS011;63119;51.788;8.824;2023-02-04T10:10:55;1.25;;;0.80;;
74612;SDS011;63119;51.788;8.824;2023-02-04T10:13:22;1.33;;;0.90;;
74612;SDS011;63119;51.788;8.824;2023-02-04T10:15:55;2.47;;;0.90;;
74612;SDS011;63119;51.788;8.824;2023-02-04T10:18:24;1.90;;;0.80;;
74612;SDS011;63119;51.788;8.824;2023-02-04T10:21:16;1.42;;;0.80;;
74612;SDS011;63119;51.788;8.824;2023-02-04T10:23:42;1.15;;;0.95;;
74612;SDS011;63119;51.788;8.824;2023-02-04T10:26:10;3.58;;;0.93;;
74612;SDS011;63119;51.788;8.824;2023-02-04T10:28:36;1.77;;;1.00;;
74612;SDS011;63119;51.788;8.824;2023-02-04T10:31:04;2.17;;;0.90;;
74612;SDS011;63119;51.788;8.824;2023-02-04T10:33:32;2.90;;;1.00;;
74612;SDS011;63119;51.788;8.824;2023-02-04T10:35:59;0.93;;;0.82;;
74612;SDS011;63119;51.788;8.824;2023-02-04T10:38:24;2.45;;;0.80;;
74612;SDS011;63119;51.788;8.824;2023-02-04T10:40:59;2.25;;;0.90;;
74612;SDS011;63119;51.788;8.824;2023-02-04T10:43:29;1.13;;;0.80;;
74612;SDS011;63119;51.788;8.824;2023-02-04T10:45:58;1.48;;;0.80;;
74612;SDS011;63119;51.788;8.824;2023-02-04T10:48:26;2.10;;;0.85;;
74612;SDS011;63119;51.788;8.824;2023-02-04T10:50:53;1.30;;;0.82;;
74612;SDS011;63119;51.788;8.824;2023-02-04T10:53:22;3.65;;;0.90;;
74612;SDS011;63119;51.788;8.824;2023-02-04T10:58:44;2.67;;;1.00;;
74612;SDS011;63119;51.788;8.824;2023-02-04T11:01:10;1.00;;;0.75;;
74612;SDS011;63119;51.788;8.824;2023-02-04T11:03:36;3.00;;;1.20;;
74612;SDS011;63119;51.788;8.824;2023-02-04T11:06:04;1.60;;;1.10;;
74612;SDS011;63119;51.788;8.824;2023-02-04T11:08:35;3.05;;;1.00;;
74612;SDS011;63119;51.788;8.824;2023-02-04T11:11:35;2.83;;;1.00;;
74612;SDS011;63119;51.788;8.824;2023-02-04T11:18:51;0.85;;;0.70;;
74612;SDS011;63119;51.788;8.824;2023-02-04T11:21:21;1.63;;;0.70;;
74612;SDS011;63119;51.788;8.824;2023-02-04T11:26:39;2.97;;;0.82;;
74612;SDS011;63119;51.788;8.824;2023-02-04T11:34:10;2.27;;;1.00;;
74612;SDS011;63119;51.788;8.824;2023-02-04T11:37:27;1.15;;;1.00;;
74612;SDS011;63119;51.788;8.824;2023-02-04T11:39:33;1.90;;;1.13;;
74612;SDS011;63119;51.788;8.824;2023-02-04T11:42:01;2.55;;;1.20;;
74612;SDS011;63119;51.788;8.824;2023-02-04T11:44:28;1.70;;;1.10;;
74612;SDS011;63119;51.788;8.824;2023-02-04T11:46:53;2.37;;;1.20;;
74612;SDS011;63119;51.788;8.824;2023-02-04T11:49:20;1.63;;;1.20;;
74612;SDS011;63119;51.788;8.824;2023-02-04T11:51:47;2.63;;;1.17;;
74612;SDS011;63119;51.788;8.824;2023-02-04T11:54:14;2.20;;;1.10;;
74612;SDS011;63119;51.788;8.824;2023-02-04T11:56:43;2.60;;;1.23;;
74612;SDS011;63119;51.788;8.824;2023-02-04T11:59:10;3.17;;;1.27;;
74612;SDS011;63119;51.788;8.824;2023-02-04T12:01:37;1.25;;;0.90;;
74612;SDS011;63119;51.788;8.824;2023-02-04T12:04:04;1.55;;;0.90;;
74612;SDS011;63119;51.788;8.824;2023-02-04T12:06:32;2.28;;;1.10;;
74612;SDS011;63119;51.788;8.824;2023-02-04T12:11:39;2.42;;;1.10;;
74612;SDS011;63119;51.788;8.824;2023-02-04T12:14:19;2.85;;;1.30;;
74612;SDS011;63119;51.788;8.824;2023-02-04T12:16:48;3.13;;;1.05;;
74612;SDS011;63119;51.788;8.824;2023-02-04T12:19:17;5.40;;;1.17;;
74612;SDS011;63119;51.788;8.824;2023-02-04T12:21:43;1.90;;;1.02;;
74612;SDS011;63119;51.788;8.824;2023-02-04T12:24:08;2.47;;;1.00;;
74612;SDS011;63119;51.788;8.824;2023-02-04T12:26:34;2.17;;;1.27;;
74612;SDS011;63119;51.788;8.824;2023-02-04T12:28:59;2.20;;;1.02;;
74612;SDS011;63119;51.788;8.824;2023-02-04T12:31:27;2.95;;;1.25;;
74612;SDS011;63119;51.788;8.824;2023-02-04T12:33:53;1.55;;;1.00;;
74612;SDS011;63119;51.788;8.824;2023-02-04T12:36:19;1.75;;;1.15;;
74612;SDS011;63119;51.788;8.824;2023-02-04T12:38:44;2.28;;;1.20;;
74612;SDS011;63119;51.788;8.824;2023-02-04T12:41:09;2.33;;;1.10;;
74612;SDS011;63119;51.788;8.824;2023-02-04T12:43:35;2.35;;;1.10;;
74612;SDS011;63119;51.788;8.824;2023-02-04T12:46:00;1.30;;;0.90;;
74612;SDS011;63119;51.788;8.824;2023-02-04T12:48:25;1.70;;;1.00;;
74612;SDS011;63119;51.788;8.824;2023-02-04T12:50:51;1.70;;;1.00;;
74612;SDS011;63119;51.788;8.824;2023-02-04T12:53:16;1.97;;;1.00;;
74612;SDS011;63119;51.788;8.824;2023-02-04T12:55:41;3.00;;;0.90;;
74612;SDS011;63119;51.788;8.824;2023-02-04T12:58:06;1.80;;;0.90;;
74612;SDS011;63119;51.788;8.824;2023-02-04T13:00:32;2.00;;;1.13;;
74612;SDS011;63119;51.788;8.824;2023-02-04T13:02:57;1.50;;;1.27;;
74612;SDS011;63119;51.788;8.824;2023-02-04T13:05:23;2.85;;;1.73;;
74612;SDS011;63119;51.788;8.824;2023-02-04T13:07:49;4.82;;;1.10;;
74612;SDS011;63119;51.788;8.824;2023-02-04T13:10:14;1.40;;;0.93;;
74612;SDS011;63119;51.788;8.824;2023-02-04T13:12:40;3.85;;;1.10;;
74612;SDS011;63119;51.788;8.824;2023-02-04T13:15:05;1.60;;;0.95;;
74612;SDS011;63119;51.788;8.824;2023-02-04T13:17:31;1.95;;;1.23;;
74612;SDS011;63119;51.788;8.824;2023-02-04T13:19:56;1.53;;;0.90;;
74612;SDS011;63119;51.788;8.824;2023-02-04T13:22:22;1.47;;;1.03;;
74612;SDS011;63119;51.788;8.824;2023-02-04T13:24:47;4.17;;;1.00;;
74612;SDS011;63119;51.788;8.824;2023-02-04T13:27:12;2.40;;;1.00;;
74612;SDS011;63119;51.788;8.824;2023-02-04T13:29:39;1.98;;;1.10;;
74612;SDS011;63119;51.788;8.824;2023-02-04T13:32:04;2.00;;;1.10;;
74612;SDS011;63119;51.788;8.824;2023-02-04T13:34:29;1.90;;;0.90;;
74612;SDS011;63119;51.788;8.824;2023-02-04T13:36:55;1.87;;;1.07;;
74612;SDS011;63119;51.788;8.824;2023-02-04T13:39:20;1.00;;;0.80;;
74612;SDS011;63119;51.788;8.824;2023-02-04T13:41:45;1.40;;;0.97;;
74612;SDS011;63119;51.788;8.824;2023-02-04T13:44:11;1.58;;;0.90;;
74612;SDS011;63119;51.788;8.824;2023-02-04T13:46:36;2.72;;;1.00;;
74612;SDS011;63119;51.788;8.824;2023-02-04T13:49:02;2.93;;;1.03;;
74612;SDS011;63119;51.788;8.824;2023-02-04T13:51:27;2.20;;;1.17;;
74612;SDS011;63119;51.788;8.824;2023-02-04T13:53:52;1.57;;;1.00;;
74612;SDS011;63119;51.788;8.824;2023-02-04T13:56:18;3.70;;;1.10;;
74612;SDS011;63119;51.788;8.824;2023-02-04T13:58:43;1.27;;;0.90;;
74612;SDS011;63119;51.788;8.824;2023-02-04T14:01:09;2.47;;;1.00;;
74612;SDS011;63119;51.788;8.824;2023-02-04T14:03:35;3.38;;;1.08;;
74612;SDS011;63119;51.788;8.824;2023-02-04T14:06:00;1.50;;;1.08;;
74612;SDS011;63119;51.788;8.824;2023-02-04T14:08:25;1.53;;;1.00;;
74612;SDS011;63119;51.788;8.824;2023-02-04T14:10:51;3.30;;;1.30;;
74612;SDS011;63119;51.788;8.824;2023-02-04T14:13:16;0.87;;;0.70;;
74612;SDS011;63119;51.788;8.824;2023-02-04T14:15:41;2.73;;;0.87;;
74612;SDS011;63119;51.788;8.824;2023-02-04T14:18:07;1.00;;;0.80;;
74612;SDS011;63119;51.788;8.824;2023-02-04T14:20:33;1.70;;;0.95;;
74612;SDS011;63119;51.788;8.824;2023-02-04T14:22:58;1.83;;;1.05;;
74612;SDS011;63119;51.788;8.824;2023-02-04T14:25:24;3.85;;;1.40;;
74612;SDS011;63119;51.788;8.824;2023-02-04T14:27:49;2.37;;;1.10;;
74612;SDS011;63119;51.788;8.824;2023-02-04T14:30:16;1.58;;;1.10;;
74612;SDS011;63119;51.788;8.824;2023-02-04T14:32:44;1.73;;;1.15;;
74612;SDS011;63119;51.788;8.824;2023-02-04T14:35:09;2.07;;;1.17;;
74612;SDS011;63119;51.788;8.824;2023-02-04T14:37:34;2.03;;;1.23;;
74612;SDS011;63119;51.788;8.824;2023-02-04T14:40:00;1.93;;;1.20;;
74612;SDS011;63119;51.788;8.824;2023-02-04T14:42:25;1.90;;;1.40;;
74612;SDS011;63119;51.788;8.824;2023-02-04T14:44:50;2.63;;;1.07;;
74612;SDS011;63119;51.788;8.824;2023-02-04T14:47:15;2.60;;;1.00;;
74612;SDS011;63119;51.788;8.824;2023-02-04T14:49:41;2.30;;;1.30;;
74612;SDS011;63119;51.788;8.824;2023-02-04T14:52:06;2.27;;;1.30;;
74612;SDS011;63119;51.788;8.824;2023-02-04T14:54:31;3.83;;;1.08;;
74612;SDS011;63119;51.788;8.824;2023-02-04T14:56:57;3.03;;;1.40;;